Time;durP1;ratioP1;P1;durP2;ratioP2;P2;SDS_P1;SDS_P2;PMS_P1;PMS_P2;Temp;Humidity;BMP_temperature;BMP_pressure;BME280_temperature;BME280_humidity;BME280_pressure;Samples;Min_cycle;Max_cycle;Signal;HPM_P1;HPM_P2
2022/12/25 00:00:40;;;;;;;3.70;2.17;;;12.10;99.90;;;;;;4985317;28;20248;-86
2022/12/25 00:03:07;;;;;;;4.03;2.22;;;12.10;99.90;;;;;;4987842;28;20041;-86
2022/12/25 00:05:33;;;;;;;4.30;2.55;;;12.10;99.90;;;;;;4954025;28;20183;-86
2022/12/25 00:07:58;;;;;;;6.03;2.60;;;12.10;99.90;;;;;;4995806;28;20029;-86
2022/12/25 00:10:24;;;;;;;4.22;2.50;;;12.20;99.90;;;;;;4962613;28;20363;-86
2022/12/25 00:12:50;;;;;;;7.47;2.50;;;12.20;99.90;;;;;;4987892;28;20813;-86
2022/12/25 00:15:16;;;;;;;4.82;2.40;;;12.20;99.90;;;;;;4983379;28;20679;-86
2022/12/25 00:17:42;;;;;;;5.65;2.20;;;12.20;99.90;;;;;;4989521;28;20026;-86
2022/12/25 00:20:08;;;;;;;3.40;2.08;;;12.20;99.90;;;;;;4992206;28;20061;-86
2022/12/25 00:22:34;;;;;;;5.10;2.30;;;12.20;99.90;;;;;;4974976;28;20383;-86
2022/12/25 00:25:00;;;;;;;3.65;2.20;;;12.30;99.90;;;;;;4982522;28;20066;-85
2022/12/25 00:27:26;;;;;;;4.80;2.25;;;12.30;99.90;;;;;;4971526;28;20033;-86
2022/12/25 00:29:51;;;;;;;6.37;2.10;;;12.30;99.90;;;;;;4994617;28;20026;-86
2022/12/25 00:32:17;;;;;;;4.30;2.15;;;12.30;99.90;;;;;;4983708;28;20025;-86
2022/12/25 00:34:43;;;;;;;4.20;2.00;;;12.30;99.90;;;;;;4990385;28;20022;-86
2022/12/25 00:37:08;;;;;;;4.15;2.08;;;12.30;99.90;;;;;;4969870;28;20041;-86
2022/12/25 00:39:34;;;;;;;3.07;1.87;;;12.30;99.90;;;;;;4998337;28;20441;-86
2022/12/25 00:42:18;;;;;;;3.13;1.92;;;12.30;99.90;;;;;;4984262;28;20128;-86
2022/12/25 00:44:45;;;;;;;6.77;2.43;;;12.30;99.90;;;;;;4970447;28;20025;-86
2022/12/25 00:47:11;;;;;;;4.32;1.90;;;12.30;99.90;;;;;;4984683;28;20037;-86
2022/12/25 00:49:36;;;;;;;3.63;1.77;;;12.30;99.90;;;;;;5002408;28;20528;-86
2022/12/25 00:52:03;;;;;;;3.30;1.67;;;12.30;99.90;;;;;;4954298;28;20029;-85
2022/12/25 00:54:29;;;;;;;2.72;1.75;;;12.30;99.90;;;;;;4970535;28;20041;-85
2022/12/25 00:56:55;;;;;;;2.67;1.85;;;12.30;99.90;;;;;;4991863;28;20022;-85
2022/12/25 00:59:21;;;;;;;4.40;1.80;;;12.40;99.90;;;;;;4986291;28;20041;-86
2022/12/25 01:01:47;;;;;;;3.13;1.60;;;12.40;99.90;;;;;;4984816;28;20033;-86
2022/12/25 01:04:13;;;;;;;6.88;1.95;;;12.30;99.90;;;;;;5008347;28;20064;-86
2022/12/25 01:06:39;;;;;;;4.13;1.80;;;12.40;99.90;;;;;;4956885;28;20131;-86
2022/12/25 01:11:49;;;;;;;2.70;1.38;;;12.40;99.90;;;;;;5009805;28;20109;-86
2022/12/25 01:14:15;;;;;;;3.83;1.40;;;12.40;99.90;;;;;;4981657;28;20179;-86
2022/12/25 01:16:41;;;;;;;2.97;1.40;;;12.30;99.90;;;;;;4972054;28;20196;-86
2022/12/25 01:19:07;;;;;;;3.55;1.50;;;12.40;99.90;;;;;;4978905;28;20502;-85
2022/12/25 01:21:33;;;;;;;3.73;1.40;;;12.40;99.90;;;;;;4971327;28;20726;-85
2022/12/25 01:23:59;;;;;;;2.85;1.27;;;12.40;99.90;;;;;;4957174;28;20486;-85
2022/12/25 01:26:26;;;;;;;1.77;1.20;;;12.40;99.90;;;;;;4965620;28;20224;-85
2022/12/25 01:28:52;;;;;;;3.38;1.58;;;12.40;99.90;;;;;;5007986;28;20418;-85
2022/12/25 01:31:20;;;;;;;2.97;1.50;;;12.40;99.90;;;;;;4967143;28;20430;-85
2022/12/25 01:33:47;;;;;;;3.00;1.40;;;12.40;99.90;;;;;;4998928;28;20550;-85
2022/12/25 01:36:19;;;;;;;4.32;1.38;;;12.40;99.90;;;;;;4977406;28;20057;-87
2022/12/25 01:38:45;;;;;;;2.55;1.52;;;12.30;99.90;;;;;;4982334;28;20030;-86
2022/12/25 01:41:12;;;;;;;3.40;1.45;;;12.30;99.90;;;;;;4979764;28;20064;-86
2022/12/25 01:44:01;;;;;;;2.13;1.23;;;12.30;99.90;;;;;;4991908;28;20529;-86
2022/12/25 01:46:28;;;;;;;2.25;1.40;;;12.30;99.90;;;;;;4965622;28;20042;-86
2022/12/25 01:49:04;;;;;;;2.20;1.38;;;12.30;99.90;;;;;;4974885;28;20026;-86
2022/12/25 01:51:51;;;;;;;2.33;1.15;;;12.30;99.90;;;;;;4990567;28;20614;-86
2022/12/25 01:54:28;;;;;;;3.92;1.52;;;12.30;99.90;;;;;;4953449;28;20231;-84
2022/12/25 01:56:58;;;;;;;1.67;1.20;;;12.30;99.90;;;;;;4972400;28;20525;-83
2022/12/25 01:59:26;;;;;;;3.30;1.33;;;12.30;99.90;;;;;;4974220;28;21606;-83
2022/12/25 02:01:52;;;;;;;2.80;1.25;;;12.30;99.90;;;;;;4966830;28;20470;-83
2022/12/25 02:04:38;;;;;;;2.85;1.30;;;12.30;99.90;;;;;;4968895;28;20030;-83
2022/12/25 02:07:10;;;;;;;3.00;1.10;;;12.30;99.90;;;;;;4985506;28;20725;-83
2022/12/25 02:09:36;;;;;;;1.63;1.13;;;12.30;99.90;;;;;;4942887;28;20021;-83
2022/12/25 02:12:03;;;;;;;3.97;1.75;;;12.30;99.90;;;;;;4972547;28;20030;-83
2022/12/25 02:14:31;;;;;;;1.90;1.02;;;12.30;99.90;;;;;;4991449;28;20040;-83
2022/12/25 02:17:19;;;;;;;2.33;1.20;;;12.30;99.90;;;;;;4982301;28;20040;-83
2022/12/25 02:20:23;;;;;;;2.30;1.30;;;12.30;99.90;;;;;;4982875;28;20243;-83
2022/12/25 02:22:48;;;;;;;2.47;1.10;;;12.30;99.90;;;;;;5000967;28;20055;-83
2022/12/25 02:25:44;;;;;;;2.05;1.10;;;12.30;99.90;;;;;;4984735;28;20540;-83
2022/12/25 02:28:37;;;;;;;1.90;1.00;;;12.30;99.90;;;;;;4999729;28;20148;-83
2022/12/25 02:31:18;;;;;;;2.13;1.10;;;12.30;99.90;;;;;;4996013;28;20071;-83
2022/12/25 02:34:14;;;;;;;3.22;1.13;;;12.30;99.90;;;;;;4975860;28;20032;-83
2022/12/25 02:36:48;;;;;;;2.10;1.02;;;12.30;99.90;;;;;;4983072;28;20249;-83
2022/12/25 02:42:10;;;;;;;2.00;1.00;;;12.30;99.90;;;;;;4999672;28;20041;-83
2022/12/25 03:07:17;;;;;;;2.50;0.90;;;12.30;99.90;;;;;;4997341;28;20041;-83
2022/12/25 03:12:43;;;;;;;1.77;1.00;;;12.30;99.90;;;;;;4993775;28;20502;-84
2022/12/25 03:17:58;;;;;;;2.25;0.90;;;12.30;99.90;;;;;;4996630;28;20485;-83
2022/12/25 03:28:39;;;;;;;2.47;1.00;;;12.30;99.90;;;;;;5011435;28;20124;-84
2022/12/25 03:31:44;;;;;;;2.00;1.00;;;12.30;99.90;;;;;;4982609;28;20022;-84
2022/12/25 03:42:15;;;;;;;1.73;1.00;;;12.30;99.90;;;;;;4998155;28;20406;-83
2022/12/25 04:36:07;;;;;;;2.55;1.10;;;12.10;99.90;;;;;;4999857;28;20038;-84
2022/12/25 04:38:34;;;;;;;2.53;1.15;;;12.10;99.90;;;;;;5009419;28;20018;-84
2022/12/25 04:41:00;;;;;;;1.43;0.97;;;12.20;99.90;;;;;;4988486;28;20033;-84
2022/12/25 04:43:26;;;;;;;2.80;1.10;;;12.20;99.90;;;;;;4985257;28;20088;-84
2022/12/25 04:45:57;;;;;;;2.45;1.30;;;12.20;99.90;;;;;;4950968;28;20091;-84
2022/12/25 04:48:24;;;;;;;2.08;1.20;;;12.20;99.90;;;;;;4991205;28;20049;-84
2022/12/25 04:50:50;;;;;;;2.80;1.08;;;12.20;99.90;;;;;;4982947;28;20021;-83
2022/12/25 04:53:16;;;;;;;1.73;1.00;;;12.20;99.90;;;;;;4987190;28;20029;-83
2022/12/25 04:55:43;;;;;;;1.85;1.00;;;12.30;99.90;;;;;;4992316;28;20029;-83
2022/12/25 04:58:09;;;;;;;1.85;1.00;;;12.20;99.90;;;;;;4995865;28;20033;-83
2022/12/25 05:00:35;;;;;;;2.70;1.10;;;12.30;99.90;;;;;;4971215;28;20025;-86
2022/12/25 05:03:00;;;;;;;1.70;1.07;;;12.30;99.90;;;;;;4981072;28;20036;-86
2022/12/25 05:05:26;;;;;;;2.05;1.02;;;12.30;99.90;;;;;;4987194;28;20476;-86
2022/12/25 05:07:52;;;;;;;1.47;1.00;;;12.30;99.90;;;;;;4985650;28;20168;-86
2022/12/25 05:10:18;;;;;;;1.35;0.90;;;12.30;99.90;;;;;;4974760;28;20048;-86
2022/12/25 05:12:44;;;;;;;2.13;1.00;;;12.30;99.90;;;;;;4985601;28;20025;-86
2022/12/25 05:15:09;;;;;;;1.83;0.90;;;12.30;99.90;;;;;;4972565;28;20029;-86
2022/12/25 05:17:36;;;;;;;3.22;1.20;;;12.30;99.90;;;;;;4957320;28;20393;-86
2022/12/25 05:20:03;;;;;;;2.28;1.42;;;12.30;99.90;;;;;;5006117;28;20037;-86
2022/12/25 05:22:29;;;;;;;1.53;0.90;;;12.30;99.90;;;;;;4985821;28;20361;-86
2022/12/25 05:24:54;;;;;;;2.05;1.10;;;12.40;99.90;;;;;;4978991;28;20581;-86
2022/12/25 05:27:20;;;;;;;2.20;1.10;;;12.30;99.90;;;;;;4973860;28;20577;-86
2022/12/25 05:29:46;;;;;;;4.47;1.10;;;12.30;99.90;;;;;;4968410;28;20037;-86
2022/12/25 05:32:12;;;;;;;3.38;0.98;;;12.30;99.90;;;;;;4962915;28;20371;-86
2022/12/25 05:34:37;;;;;;;2.03;1.10;;;12.40;99.90;;;;;;4982308;28;20044;-86
2022/12/25 05:37:03;;;;;;;2.35;1.05;;;12.40;99.90;;;;;;4973782;28;20435;-86
2022/12/25 05:39:29;;;;;;;2.37;1.40;;;12.40;99.90;;;;;;4997035;28;20022;-86
2022/12/25 05:41:55;;;;;;;1.52;1.00;;;12.30;99.90;;;;;;5006928;28;20104;-84
2022/12/25 05:44:21;;;;;;;1.40;1.00;;;12.40;99.90;;;;;;4995338;28;20055;-83
2022/12/25 05:46:47;;;;;;;1.97;1.10;;;12.40;99.90;;;;;;4981215;28;20033;-84
2022/12/25 05:49:13;;;;;;;1.83;1.13;;;12.40;99.90;;;;;;4952941;28;20056;-84
2022/12/25 05:51:39;;;;;;;2.47;1.15;;;12.40;99.90;;;;;;4976338;28;20029;-83
2022/12/25 05:54:04;;;;;;;2.00;1.10;;;12.30;99.90;;;;;;4997308;28;20033;-84
2022/12/25 05:56:30;;;;;;;2.10;1.30;;;12.30;99.90;;;;;;5007233;28;20025;-84
2022/12/25 05:58:56;;;;;;;2.72;1.17;;;12.40;99.90;;;;;;4981129;28;20264;-84
2022/12/25 06:01:26;;;;;;;2.50;1.20;;;12.30;99.90;;;;;;4985738;28;20117;-83
2022/12/25 06:03:52;;;;;;;2.60;1.40;;;12.40;99.90;;;;;;4971967;28;20286;-84
2022/12/25 06:06:18;;;;;;;2.63;1.20;;;12.40;99.90;;;;;;4992236;28;20455;-84
2022/12/25 06:08:44;;;;;;;4.00;1.50;;;12.30;99.90;;;;;;4962437;28;20022;-84
2022/12/25 06:11:12;;;;;;;1.92;1.30;;;12.40;99.90;;;;;;4975710;28;20021;-84
2022/12/25 06:13:38;;;;;;;1.87;1.20;;;12.40;99.90;;;;;;4966458;28;20376;-83
2022/12/25 06:16:09;;;;;;;2.65;1.42;;;12.40;99.90;;;;;;4980863;28;20536;-83
2022/12/25 06:18:37;;;;;;;1.70;1.10;;;12.40;99.90;;;;;;4971660;28;20091;-84
2022/12/25 06:21:08;;;;;;;2.53;1.30;;;12.30;99.90;;;;;;4978415;28;20044;-84
2022/12/25 06:23:35;;;;;;;2.85;1.20;;;12.40;99.90;;;;;;4989515;28;20053;-84
2022/12/25 06:26:06;;;;;;;2.33;1.20;;;12.40;99.90;;;;;;5011379;28;20032;-84
2022/12/25 06:28:32;;;;;;;2.35;1.38;;;12.40;99.90;;;;;;4978428;28;20893;-84
2022/12/25 06:30:58;;;;;;;2.60;1.30;;;12.40;99.90;;;;;;4982774;28;20116;-83
2022/12/25 06:33:24;;;;;;;2.17;1.33;;;12.40;99.90;;;;;;4966296;28;20054;-83
2022/12/25 06:35:50;;;;;;;2.75;1.40;;;12.40;99.90;;;;;;4987971;28;20213;-83
2022/12/25 06:38:15;;;;;;;2.15;1.52;;;12.40;99.90;;;;;;4992618;28;20406;-83
2022/12/25 06:40:41;;;;;;;2.07;1.30;;;12.40;99.90;;;;;;4973620;28;20048;-83
2022/12/25 06:43:07;;;;;;;2.75;1.45;;;12.40;99.90;;;;;;4992447;28;20032;-83
2022/12/25 06:45:34;;;;;;;2.07;1.47;;;12.40;99.90;;;;;;4980286;28;20042;-84
2022/12/25 06:48:01;;;;;;;1.98;1.20;;;12.40;99.90;;;;;;4993635;28;20022;-84
2022/12/25 06:50:26;;;;;;;1.67;1.20;;;12.40;99.90;;;;;;4953428;28;20040;-83
2022/12/25 06:52:52;;;;;;;1.93;1.40;;;12.40;99.90;;;;;;4988797;28;20018;-83
2022/12/25 06:55:18;;;;;;;3.90;1.33;;;12.40;99.90;;;;;;4963416;28;20037;-83
2022/12/25 06:57:43;;;;;;;1.90;1.58;;;12.40;99.90;;;;;;4988908;28;20032;-83
2022/12/25 07:00:10;;;;;;;1.93;1.33;;;12.40;99.90;;;;;;4981533;28;20079;-83
2022/12/25 07:02:37;;;;;;;1.98;1.30;;;12.40;99.90;;;;;;5000773;28;20033;-83
2022/12/25 07:05:03;;;;;;;3.10;1.38;;;12.40;99.90;;;;;;4956235;28;21684;-83
2022/12/25 07:07:29;;;;;;;1.45;1.13;;;12.40;99.90;;;;;;4992273;28;20136;-83
2022/12/25 07:09:55;;;;;;;1.80;1.10;;;12.40;99.90;;;;;;4965182;28;20037;-83
2022/12/25 07:12:22;;;;;;;1.92;1.15;;;12.40;99.90;;;;;;4983422;28;20105;-83
2022/12/25 07:14:48;;;;;;;1.70;1.00;;;12.40;99.90;;;;;;4977394;28;20022;-83
2022/12/25 07:17:18;;;;;;;1.90;1.10;;;12.40;99.90;;;;;;4975645;28;20165;-83
2022/12/25 07:19:48;;;;;;;2.03;1.20;;;12.40;99.90;;;;;;4999244;28;20033;-83
2022/12/25 07:22:14;;;;;;;2.17;1.20;;;12.50;99.90;;;;;;4987010;28;20356;-83
2022/12/25 07:24:40;;;;;;;2.10;1.30;;;12.50;99.90;;;;;;4979543;28;20053;-83
2022/12/25 07:27:07;;;;;;;1.80;1.13;;;12.50;99.90;;;;;;4994672;28;20345;-83
2022/12/25 07:29:33;;;;;;;2.55;1.20;;;12.50;99.90;;;;;;5014366;28;20029;-83
2022/12/25 07:31:58;;;;;;;1.60;1.25;;;12.50;99.90;;;;;;4997350;28;20026;-83
2022/12/25 07:34:24;;;;;;;2.57;1.20;;;12.50;99.90;;;;;;5008759;28;20501;-83
2022/12/25 07:36:50;;;;;;;2.15;1.20;;;12.50;99.90;;;;;;4965157;28;20056;-83
2022/12/25 07:39:16;;;;;;;1.60;1.10;;;12.40;99.90;;;;;;4975407;28;20212;-83
2022/12/25 07:41:43;;;;;;;2.42;1.00;;;12.50;99.90;;;;;;4966892;28;20533;-84
2022/12/25 07:44:09;;;;;;;1.80;1.20;;;12.40;99.90;;;;;;4992944;28;20495;-83
2022/12/25 07:46:34;;;;;;;1.63;1.00;;;12.40;99.90;;;;;;4969704;28;20032;-83
2022/12/25 07:49:00;;;;;;;1.73;1.20;;;12.40;99.90;;;;;;4970697;28;20021;-83
2022/12/25 07:51:28;;;;;;;1.75;1.30;;;12.40;99.90;;;;;;4997045;28;20483;-83
2022/12/25 07:53:55;;;;;;;1.98;1.08;;;12.40;99.90;;;;;;4958769;28;20087;-83
2022/12/25 07:56:21;;;;;;;1.00;0.90;;;12.40;99.90;;;;;;4994789;28;20122;-83
2022/12/25 07:58:47;;;;;;;1.65;1.17;;;12.30;99.90;;;;;;4989119;28;20045;-83
2022/12/25 08:01:18;;;;;;;2.13;0.93;;;12.30;99.90;;;;;;4980431;28;20159;-83
2022/12/25 08:03:51;;;;;;;1.40;1.15;;;12.30;99.90;;;;;;4986580;28;20152;-83
2022/12/25 08:06:20;;;;;;;1.90;1.00;;;12.30;99.90;;;;;;4997007;28;20037;-83
2022/12/25 08:08:45;;;;;;;1.57;0.97;;;12.30;99.90;;;;;;4981704;28;20030;-83
2022/12/25 08:11:11;;;;;;;1.17;0.93;;;12.30;99.90;;;;;;4952903;28;20111;-84
2022/12/25 08:13:38;;;;;;;1.33;0.85;;;12.30;99.90;;;;;;4969307;28;20068;-83
2022/12/25 08:16:09;;;;;;;1.42;1.02;;;12.20;99.90;;;;;;4975931;28;20382;-83
2022/12/25 08:18:36;;;;;;;1.80;1.17;;;12.30;99.90;;;;;;4988633;28;20147;-84
2022/12/25 08:21:11;;;;;;;3.08;1.30;;;12.30;99.90;;;;;;4989450;28;20041;-84
2022/12/25 08:23:40;;;;;;;1.98;1.17;;;12.20;99.90;;;;;;5008551;28;20403;-84
2022/12/25 08:26:07;;;;;;;3.10;1.20;;;12.20;99.90;;;;;;4962212;28;20152;-84
2022/12/25 08:28:34;;;;;;;1.55;1.15;;;12.20;99.90;;;;;;4979043;28;20025;-84
2022/12/25 08:31:20;;;;;;;1.90;1.20;;;12.20;99.90;;;;;;4991738;28;20315;-84
2022/12/25 08:33:46;;;;;;;2.65;1.40;;;12.20;99.90;;;;;;4986077;28;21101;-84
2022/12/25 08:36:12;;;;;;;1.90;1.23;;;12.20;99.90;;;;;;4991349;28;20025;-84
2022/12/25 08:38:39;;;;;;;2.55;1.50;;;12.20;99.90;;;;;;4997780;28;20061;-84
2022/12/25 08:41:06;;;;;;;2.45;1.50;;;12.10;99.90;;;;;;4940918;28;20038;-84
2022/12/25 08:43:32;;;;;;;1.53;1.10;;;12.10;99.90;;;;;;4963837;28;20112;-84
2022/12/25 08:45:57;;;;;;;1.80;1.13;;;12.10;99.90;;;;;;5013369;28;20701;-84
2022/12/25 08:48:23;;;;;;;1.77;1.20;;;12.00;99.90;;;;;;4980442;28;20231;-84
2022/12/25 08:50:51;;;;;;;1.83;1.10;;;12.00;99.90;;;;;;4993166;28;20097;-85
2022/12/25 08:53:17;;;;;;;1.80;1.20;;;12.00;99.90;;;;;;4980666;28;20471;-85
2022/12/25 08:55:43;;;;;;;2.13;1.20;;;12.00;99.90;;;;;;4968798;28;20524;-85
2022/12/25 08:58:09;;;;;;;2.77;1.23;;;12.00;99.90;;;;;;4976126;28;20017;-84
2022/12/25 09:00:35;;;;;;;1.63;1.10;;;12.00;99.90;;;;;;4990215;28;20057;-84
2022/12/25 09:03:01;;;;;;;2.35;1.30;;;12.00;99.90;;;;;;4980789;28;20030;-85
2022/12/25 09:05:27;;;;;;;2.85;1.52;;;12.00;99.90;;;;;;4982457;28;20080;-85
2022/12/25 09:07:53;;;;;;;2.53;1.50;;;12.00;99.90;;;;;;4993367;28;20033;-85
2022/12/25 09:10:20;;;;;;;2.67;1.40;;;12.00;99.90;;;;;;4975097;28;20020;-85
2022/12/25 09:12:45;;;;;;;2.80;1.40;;;12.00;99.90;;;;;;4942667;28;20442;-85
2022/12/25 09:15:12;;;;;;;2.75;1.85;;;12.00;99.90;;;;;;5009651;28;20064;-85
2022/12/25 09:17:37;;;;;;;3.55;1.88;;;12.00;99.90;;;;;;4993583;28;20049;-85
2022/12/25 09:20:04;;;;;;;3.03;1.80;;;12.00;99.90;;;;;;4975226;28;20552;-85
2022/12/25 09:22:30;;;;;;;2.80;1.65;;;12.00;99.90;;;;;;4977027;28;20076;-85
2022/12/25 09:24:56;;;;;;;3.00;1.70;;;12.00;99.90;;;;;;4983459;28;20137;-85
2022/12/25 09:27:22;;;;;;;2.80;1.52;;;12.00;99.90;;;;;;4955496;28;20067;-85
2022/12/25 09:29:47;;;;;;;2.47;1.50;;;12.00;99.90;;;;;;4971263;28;20123;-85
2022/12/25 09:32:13;;;;;;;2.63;1.37;;;12.00;99.90;;;;;;4978934;28;20750;-85
2022/12/25 09:34:39;;;;;;;2.40;1.40;;;11.90;99.90;;;;;;4965550;28;20079;-85
2022/12/25 09:37:04;;;;;;;2.67;1.38;;;11.90;99.90;;;;;;5002351;28;20491;-85
2022/12/25 09:39:30;;;;;;;2.30;1.47;;;11.90;99.90;;;;;;4972228;28;20130;-85
2022/12/25 09:42:03;;;;;;;2.80;1.50;;;12.00;99.90;;;;;;4982655;28;20270;-86
2022/12/25 09:44:43;;;;;;;2.50;1.33;;;11.90;99.90;;;;;;4969680;28;20728;-85
2022/12/25 09:47:22;;;;;;;2.10;1.40;;;11.90;99.90;;;;;;4990158;28;20498;-88
2022/12/25 09:49:51;;;;;;;2.25;1.42;;;12.00;99.90;;;;;;4996593;28;20049;-88
2022/12/25 09:52:37;;;;;;;2.42;1.60;;;12.00;99.90;;;;;;5007736;28;20081;-88
2022/12/25 09:55:19;;;;;;;2.20;1.52;;;12.00;99.90;;;;;;4996718;28;20030;-88
2022/12/25 09:57:49;;;;;;;2.00;1.30;;;12.00;99.90;;;;;;4970933;28;20160;-88
2022/12/25 10:00:22;;;;;;;2.00;1.30;;;12.00;99.90;;;;;;4992197;28;20168;-88
2022/12/25 10:03:06;;;;;;;2.25;1.60;;;12.00;99.90;;;;;;4953110;28;20072;-86
2022/12/25 10:05:44;;;;;;;1.92;1.38;;;12.00;99.90;;;;;;4978229;28;20276;-86
2022/12/25 10:08:18;;;;;;;2.70;1.58;;;12.00;99.90;;;;;;4973390;28;20030;-85
2022/12/25 10:11:24;;;;;;;2.55;1.40;;;12.00;99.90;;;;;;5001622;28;20095;-85
2022/12/25 10:14:01;;;;;;;1.70;1.23;;;12.00;99.90;;;;;;4963902;28;20521;-88
2022/12/25 10:17:05;;;;;;;2.13;1.40;;;12.00;99.90;;;;;;4978652;28;20084;-88
2022/12/25 10:20:01;;;;;;;2.22;1.50;;;12.00;99.90;;;;;;4976994;28;20052;-86
2022/12/25 10:22:50;;;;;;;2.42;1.42;;;12.10;99.90;;;;;;4967655;28;20079;-86
2022/12/25 10:25:22;;;;;;;2.20;1.50;;;12.10;99.90;;;;;;4989331;28;20120;-86
2022/12/25 10:28:00;;;;;;;2.87;1.67;;;12.00;99.90;;;;;;4960181;28;20557;-86
2022/12/25 10:30:27;;;;;;;2.70;1.58;;;12.10;99.90;;;;;;4973407;28;20021;-86
2022/12/25 10:32:56;;;;;;;3.10;1.88;;;12.00;99.90;;;;;;4967402;28;20021;-86
2022/12/25 10:35:25;;;;;;;3.20;1.73;;;12.00;99.90;;;;;;4985937;28;20026;-86
2022/12/25 10:38:00;;;;;;;3.38;1.52;;;12.10;99.90;;;;;;4963522;28;20026;-86
2022/12/25 10:40:33;;;;;;;2.90;1.83;;;12.10;99.90;;;;;;4993516;28;20388;-86
2022/12/25 10:43:37;;;;;;;2.88;1.80;;;12.10;99.90;;;;;;4980834;28;20112;-86
2022/12/25 10:46:13;;;;;;;2.75;1.73;;;12.10;99.90;;;;;;4988974;28;20034;-86
2022/12/25 10:48:52;;;;;;;3.28;2.00;;;12.10;99.90;;;;;;4965285;28;20305;-86
2022/12/25 10:51:27;;;;;;;3.20;2.13;;;12.10;99.90;;;;;;4985149;28;20108;-88
2022/12/25 10:53:52;;;;;;;2.80;1.83;;;12.10;99.90;;;;;;4994457;28;20404;-88
2022/12/25 10:56:18;;;;;;;4.32;2.00;;;12.20;99.90;;;;;;5002217;28;20037;-88
2022/12/25 10:58:44;;;;;;;3.47;2.15;;;12.20;99.90;;;;;;4958233;28;20045;-88
2022/12/25 11:01:11;;;;;;;4.50;2.07;;;12.20;99.90;;;;;;4962504;28;20240;-88
2022/12/25 11:03:39;;;;;;;3.30;2.15;;;12.20;99.90;;;;;;4981307;28;20777;-88
2022/12/25 11:06:19;;;;;;;3.10;2.00;;;12.20;99.90;;;;;;4972000;28;20331;-88
2022/12/25 11:08:52;;;;;;;3.50;2.20;;;12.20;99.90;;;;;;4993062;28;20076;-88
2022/12/25 11:11:19;;;;;;;3.10;2.10;;;12.20;99.90;;;;;;4973630;28;20009;-86
2022/12/25 11:13:51;;;;;;;3.13;2.03;;;12.30;99.90;;;;;;4964857;28;20520;-86
2022/12/25 11:16:29;;;;;;;3.05;1.90;;;12.30;99.90;;;;;;4956478;28;20037;-86
2022/12/25 11:18:55;;;;;;;3.75;2.28;;;12.30;99.90;;;;;;4967494;28;20034;-86
2022/12/25 11:21:29;;;;;;;3.47;2.15;;;12.30;99.90;;;;;;4974728;28;20103;-86
2022/12/25 11:24:16;;;;;;;3.13;2.13;;;12.30;99.90;;;;;;4981288;28;20764;-86
2022/12/25 11:26:51;;;;;;;2.97;1.87;;;12.30;99.90;;;;;;4974110;28;20239;-86
2022/12/25 11:29:46;;;;;;;3.58;2.42;;;12.30;99.90;;;;;;4995261;28;20029;-86
2022/12/25 11:32:21;;;;;;;3.90;2.28;;;12.30;99.90;;;;;;4976576;28;20108;-86
2022/12/25 11:34:48;;;;;;;3.22;2.33;;;12.30;99.90;;;;;;4981469;28;20021;-86
2022/12/25 11:37:22;;;;;;;4.13;2.42;;;12.30;99.90;;;;;;4975472;28;20029;-86
2022/12/25 11:39:47;;;;;;;4.53;2.57;;;12.30;99.90;;;;;;4966396;28;20345;-86
2022/12/25 11:42:19;;;;;;;3.10;2.33;;;12.30;99.90;;;;;;4989454;28;20038;-86
2022/12/25 11:45:00;;;;;;;3.35;2.35;;;12.30;99.90;;;;;;4969569;28;20222;-86
2022/12/25 11:47:48;;;;;;;3.97;2.33;;;12.30;99.90;;;;;;4961371;28;20044;-86
2022/12/25 11:50:23;;;;;;;3.27;2.27;;;12.40;99.90;;;;;;4981399;28;20904;-86
2022/12/25 11:52:50;;;;;;;4.53;2.17;;;12.40;99.90;;;;;;4990458;28;20254;-86
2022/12/25 11:55:16;;;;;;;3.58;2.33;;;12.40;99.90;;;;;;4973315;28;20072;-86
2022/12/25 11:57:46;;;;;;;4.20;2.63;;;12.40;99.90;;;;;;4996964;28;20049;-86
2022/12/25 12:00:14;;;;;;;3.93;2.33;;;12.40;99.90;;;;;;4981155;28;20494;-86
2022/12/25 12:02:58;;;;;;;4.03;2.17;;;12.40;99.90;;;;;;4957188;28;20159;-87
2022/12/25 12:05:46;;;;;;;3.85;2.58;;;12.40;99.90;;;;;;4993038;28;20045;-87
2022/12/25 12:08:13;;;;;;;4.40;2.60;;;12.40;99.90;;;;;;4972658;28;20034;-87
2022/12/25 12:10:59;;;;;;;3.67;2.45;;;12.40;99.90;;;;;;4982718;28;22901;-86
2022/12/25 12:13:42;;;;;;;4.23;2.50;;;12.40;99.90;;;;;;5005177;28;20029;-86
2022/12/25 12:16:09;;;;;;;4.30;2.58;;;12.40;99.90;;;;;;4978430;28;20029;-86
2022/12/25 12:18:35;;;;;;;3.75;2.42;;;12.40;99.90;;;;;;4952799;28;20025;-86
2022/12/25 12:21:17;;;;;;;3.95;2.75;;;12.40;99.90;;;;;;4993288;28;20059;-86
2022/12/25 12:23:49;;;;;;;3.42;2.45;;;12.40;99.90;;;;;;4979820;28;20025;-86
2022/12/25 12:26:24;;;;;;;3.57;2.60;;;12.40;99.90;;;;;;4967296;28;20086;-86
2022/12/25 12:28:53;;;;;;;4.47;2.83;;;12.40;99.90;;;;;;4970913;28;20232;-86
2022/12/25 12:31:18;;;;;;;5.57;2.97;;;12.50;99.90;;;;;;4972006;28;20022;-86
2022/12/25 12:34:03;;;;;;;7.05;3.55;;;12.40;99.90;;;;;;4975630;28;20025;-86
2022/12/25 12:36:28;;;;;;;7.83;3.67;;;12.50;99.90;;;;;;4974266;28;20033;-86
2022/12/25 12:38:57;;;;;;;7.80;4.00;;;12.50;99.90;;;;;;4971430;28;20057;-86
2022/12/25 12:41:38;;;;;;;7.05;3.40;;;12.50;99.90;;;;;;4964514;28;20076;-86
2022/12/25 12:44:04;;;;;;;5.32;2.90;;;12.50;99.90;;;;;;4989495;28;20045;-86
2022/12/25 12:46:35;;;;;;;5.95;2.88;;;12.50;99.90;;;;;;4977422;28;20033;-86
2022/12/25 12:49:31;;;;;;;4.60;2.83;;;12.50;99.90;;;;;;4955790;28;20063;-86
2022/12/25 12:52:23;;;;;;;3.47;2.47;;;12.50;99.90;;;;;;4970171;28;20029;-86
2022/12/25 12:55:08;;;;;;;4.32;2.65;;;12.50;99.90;;;;;;4987370;28;20375;-86
2022/12/25 12:57:38;;;;;;;3.20;2.30;;;12.50;99.90;;;;;;4962736;28;20128;-86
2022/12/25 13:00:08;;;;;;;3.30;2.40;;;12.50;99.90;;;;;;4992230;28;20057;-87
2022/12/25 13:02:52;;;;;;;3.23;2.27;;;12.50;99.90;;;;;;4979126;28;20033;-87
2022/12/25 13:05:22;;;;;;;4.10;2.47;;;12.50;99.90;;;;;;4989069;28;20056;-87
2022/12/25 13:08:01;;;;;;;4.00;2.60;;;12.50;99.90;;;;;;4957572;28;20164;-87
2022/12/25 13:10:35;;;;;;;4.22;2.47;;;12.50;99.90;;;;;;4977378;28;20033;-87
2022/12/25 13:13:05;;;;;;;4.32;2.70;;;12.50;99.90;;;;;;4977440;28;20453;-86
2022/12/25 13:15:33;;;;;;;4.70;2.90;;;12.50;99.90;;;;;;4993148;28;20486;-86
2022/12/25 13:18:04;;;;;;;4.20;2.90;;;12.50;99.90;;;;;;4987853;28;20577;-86
2022/12/25 13:20:55;;;;;;;5.13;3.28;;;12.50;99.90;;;;;;4967520;28;20060;-86
2022/12/25 13:23:29;;;;;;;4.88;3.10;;;12.50;99.90;;;;;;4983469;28;20029;-86
2022/12/25 13:25:57;;;;;;;5.85;3.42;;;12.50;99.90;;;;;;4988513;28;20040;-86
2022/12/25 13:28:28;;;;;;;4.83;3.07;;;12.50;99.90;;;;;;4964949;28;20771;-86
2022/12/25 13:31:16;;;;;;;6.07;3.15;;;12.50;99.90;;;;;;4989787;28;20433;-86
2022/12/25 13:34:04;;;;;;;4.32;3.00;;;12.40;99.90;;;;;;4969186;28;20022;-86
2022/12/25 13:36:35;;;;;;;5.05;2.85;;;12.40;99.90;;;;;;4990930;28;20128;-86
2022/12/25 13:39:02;;;;;;;4.28;2.80;;;12.40;99.90;;;;;;4981623;28;20335;-86
2022/12/25 13:44:28;;;;;;;3.60;2.40;;;12.50;99.90;;;;;;4984691;28;20030;-86
2022/12/25 13:46:54;;;;;;;3.72;2.53;;;12.40;99.90;;;;;;4975465;28;20037;-86
2022/12/25 13:49:22;;;;;;;3.92;2.85;;;12.40;99.90;;;;;;4979042;28;20022;-86
2022/12/25 13:51:49;;;;;;;4.10;2.60;;;12.50;99.90;;;;;;4951002;28;20030;-86
2022/12/25 13:54:17;;;;;;;4.38;2.90;;;12.40;99.90;;;;;;4989400;28;20048;-86
2022/12/25 13:56:52;;;;;;;4.40;2.85;;;12.40;99.90;;;;;;4963490;28;20132;-86
2022/12/25 13:59:23;;;;;;;4.22;2.47;;;12.40;99.90;;;;;;4977360;28;20083;-86
2022/12/25 14:01:50;;;;;;;3.45;2.47;;;12.40;99.90;;;;;;4972951;28;20103;-86
2022/12/25 14:04:21;;;;;;;3.97;2.67;;;12.40;99.90;;;;;;4981363;28;20036;-86
2022/12/25 14:06:48;;;;;;;4.00;2.80;;;12.50;99.90;;;;;;4945176;28;20037;-86
2022/12/25 14:09:14;;;;;;;4.50;2.65;;;12.40;99.90;;;;;;4975506;28;20242;-86
2022/12/25 14:11:46;;;;;;;4.80;2.92;;;12.50;99.90;;;;;;4966972;28;20026;-86
2022/12/25 14:14:19;;;;;;;4.65;2.67;;;12.40;99.90;;;;;;4975267;28;20675;-86
2022/12/25 14:16:49;;;;;;;4.40;2.87;;;12.40;99.90;;;;;;4990284;28;20104;-86
2022/12/25 14:19:28;;;;;;;4.72;2.92;;;12.50;99.90;;;;;;4993242;28;20221;-86
2022/12/25 14:22:01;;;;;;;3.95;2.78;;;12.40;99.90;;;;;;4933110;28;20387;-86
2022/12/25 14:24:29;;;;;;;3.72;2.78;;;12.50;99.90;;;;;;4994159;28;20133;-86
2022/12/25 14:27:01;;;;;;;4.18;2.95;;;12.50;99.90;;;;;;4965147;28;20029;-86
2022/12/25 14:29:38;;;;;;;4.13;2.70;;;12.50;99.90;;;;;;4979281;28;20030;-86
2022/12/25 14:32:06;;;;;;;4.03;2.60;;;12.50;99.90;;;;;;4974839;28;20466;-86
2022/12/25 14:34:33;;;;;;;3.95;2.63;;;12.50;99.90;;;;;;4972751;28;20493;-86
2022/12/25 14:37:00;;;;;;;3.78;2.67;;;12.50;99.90;;;;;;4951489;28;20147;-86
2022/12/25 14:39:29;;;;;;;3.92;2.63;;;12.50;99.90;;;;;;4976142;28;20018;-86
2022/12/25 14:41:55;;;;;;;3.60;2.50;;;12.50;99.90;;;;;;4993698;28;20676;-86
2022/12/25 14:44:38;;;;;;;4.65;2.72;;;12.50;99.90;;;;;;4989170;28;20046;-86
2022/12/25 14:47:10;;;;;;;4.13;2.70;;;12.50;99.90;;;;;;4977720;28;20034;-86
2022/12/25 14:49:36;;;;;;;3.85;2.60;;;12.50;99.90;;;;;;4980496;28;20595;-86